createdAt,value
2023-05-22T00:00:47.404Z,35.44
2023-05-22T00:01:47.456Z,35.44
2023-05-22T00:02:47.489Z,35.42
2023-05-22T00:03:47.384Z,35.44
2023-05-22T00:04:47.482Z,35.42
2023-05-22T00:05:47.367Z,35.43
2023-05-22T00:06:47.376Z,35.41
2023-05-22T00:07:47.412Z,35.39
2023-05-22T00:08:47.385Z,35.40
2023-05-22T00:09:47.404Z,35.40
2023-05-22T00:10:47.426Z,35.41
2023-05-22T00:11:47.448Z,35.42
2023-05-22T00:12:47.382Z,35.43
2023-05-22T00:13:47.381Z,35.43
2023-05-22T00:14:47.448Z,35.40
2023-05-22T00:15:47.456Z,35.40
2023-05-22T00:16:47.541Z,35.43
2023-05-22T00:17:47.594Z,35.41
2023-05-22T00:18:47.617Z,35.41
2023-05-22T00:19:47.576Z,35.44
2023-05-22T00:20:47.576Z,35.39
2023-05-22T00:21:47.572Z,35.39
2023-05-22T00:22:47.583Z,35.42
2023-05-22T00:23:47.617Z,35.44
2023-05-22T00:24:47.606Z,35.43
2023-05-22T00:25:47.623Z,35.42
2023-05-22T00:26:47.626Z,35.43
2023-05-22T00:27:47.623Z,35.43
2023-05-22T00:28:47.640Z,35.40
2023-05-22T00:29:47.648Z,35.41
2023-05-22T00:30:47.616Z,35.41
2023-05-22T00:31:47.608Z,35.42
2023-05-22T00:32:47.643Z,35.40
2023-05-22T00:33:47.620Z,35.42
2023-05-22T00:34:47.784Z,35.43
2023-05-22T00:35:47.654Z,35.43
2023-05-22T00:36:47.589Z,35.42
2023-05-22T00:37:47.620Z,35.44
2023-05-22T00:38:47.601Z,35.43
2023-05-22T00:39:47.609Z,35.42
2023-05-22T00:40:47.616Z,35.41
2023-05-22T00:41:47.620Z,35.42
2023-05-22T00:42:47.630Z,35.41
2023-05-22T00:43:47.653Z,35.42
2023-05-22T00:44:47.635Z,35.45
2023-05-22T00:45:47.651Z,35.42
2023-05-22T00:46:47.790Z,35.44
2023-05-22T00:47:47.671Z,35.43
2023-05-22T00:48:47.673Z,35.43
2023-05-22T00:49:47.697Z,35.44
2023-05-22T00:50:47.679Z,35.46
2023-05-22T00:51:47.649Z,35.46
2023-05-22T00:52:47.685Z,35.42
2023-05-22T00:53:47.664Z,35.44
2023-05-22T00:54:47.681Z,35.45
2023-05-22T00:55:47.673Z,35.43
2023-05-22T00:56:47.644Z,35.44
2023-05-22T00:57:47.697Z,35.43
2023-05-22T00:58:47.691Z,35.44
2023-05-22T00:59:47.710Z,35.44
2023-05-22T01:00:47.725Z,35.44
2023-05-22T01:01:47.740Z,35.45
2023-05-22T01:02:47.829Z,35.42
2023-05-22T01:03:47.897Z,35.45
2023-05-22T01:04:47.750Z,35.43
2023-05-22T01:05:47.749Z,35.47
2023-05-22T01:06:47.806Z,35.45
2023-05-22T01:07:47.772Z,35.44
2023-05-22T01:08:47.716Z,35.43
2023-05-22T01:09:47.717Z,35.44
2023-05-22T01:10:47.673Z,35.46
2023-05-22T01:11:47.719Z,35.43
2023-05-22T01:12:47.743Z,35.46
2023-05-22T01:13:47.742Z,35.44
2023-05-22T01:14:47.752Z,35.45
2023-05-22T01:15:47.852Z,35.44
2023-05-22T01:16:47.849Z,35.45
2023-05-22T01:17:47.820Z,35.46
2023-05-22T01:18:47.791Z,35.43
2023-05-22T01:19:47.826Z,35.45
2023-05-22T01:20:48.763Z,35.45
2023-05-22T01:21:47.758Z,35.46
2023-05-22T01:22:47.773Z,35.46
2023-05-22T01:23:47.767Z,35.48
2023-05-22T01:24:47.777Z,35.47
2023-05-22T01:25:47.790Z,35.45
2023-05-22T01:26:47.788Z,35.46
2023-05-22T01:27:47.755Z,35.46
2023-05-22T01:28:47.740Z,35.48
2023-05-22T01:29:47.854Z,35.48
2023-05-22T01:30:47.824Z,35.48
2023-05-22T01:31:47.786Z,35.48
2023-05-22T01:32:47.931Z,35.48
2023-05-22T01:33:47.973Z,35.46
2023-05-22T01:34:47.804Z,35.47
2023-05-22T01:35:47.799Z,35.48
2023-05-22T01:36:47.801Z,35.48
2023-05-22T01:37:47.814Z,35.48
2023-05-22T01:38:47.820Z,35.49
2023-05-22T01:39:47.828Z,35.49
2023-05-22T01:40:47.830Z,35.52
2023-05-22T01:41:47.833Z,35.48
2023-05-22T01:42:47.850Z,35.50
2023-05-22T01:43:47.852Z,35.50
2023-05-22T01:44:47.849Z,35.49
2023-05-22T01:45:47.890Z,35.48
2023-05-22T01:46:47.868Z,35.48
2023-05-22T01:47:47.900Z,35.48
2023-05-22T01:48:47.909Z,35.49
2023-05-22T01:49:47.948Z,35.50
2023-05-22T01:50:48.127Z,35.50
2023-05-22T01:51:47.963Z,35.50
2023-05-22T01:52:47.967Z,35.49
2023-05-22T01:53:47.964Z,35.49
2023-05-22T01:54:47.982Z,35.53
2023-05-22T01:55:47.952Z,35.50
2023-05-22T01:56:48.004Z,35.51
2023-05-22T01:57:48.011Z,35.49
2023-05-22T01:58:48.023Z,35.48
2023-05-22T01:59:48.066Z,35.52
2023-05-22T02:00:48.052Z,35.51
2023-05-22T02:01:48.112Z,35.50
2023-05-22T02:02:48.209Z,35.52
2023-05-22T02:03:48.155Z,35.52
2023-05-22T02:04:48.094Z,35.50
2023-05-22T02:05:48.111Z,35.52
2023-05-22T02:06:48.129Z,35.54
2023-05-22T02:07:48.121Z,35.52
2023-05-22T02:08:48.112Z,35.52
2023-05-22T02:09:48.123Z,35.53
2023-05-22T02:10:48.202Z,35.53
2023-05-22T02:11:48.200Z,35.52
2023-05-22T02:12:48.155Z,35.54
2023-05-22T02:13:48.165Z,35.51
2023-05-22T02:14:48.241Z,35.53
2023-05-22T02:15:48.260Z,35.52
2023-05-22T02:16:48.245Z,35.53
2023-05-22T02:17:48.273Z,35.54
2023-05-22T02:18:48.247Z,35.53
2023-05-22T02:19:48.270Z,35.51
2023-05-22T02:20:48.269Z,35.55
2023-05-22T02:21:48.272Z,35.53
2023-05-22T02:22:48.275Z,35.52
2023-05-22T02:23:48.288Z,35.53
2023-05-22T02:24:48.336Z,35.53
2023-05-22T02:25:48.308Z,35.53
2023-05-22T02:26:48.348Z,35.53
2023-05-22T02:27:48.356Z,35.53
2023-05-22T02:28:48.369Z,35.56
2023-05-22T02:29:48.369Z,35.55
2023-05-22T02:30:48.401Z,35.54
2023-05-22T02:31:48.564Z,35.56
2023-05-22T02:32:48.471Z,35.54
2023-05-22T02:33:48.432Z,35.53
2023-05-22T02:34:48.455Z,35.54
2023-05-22T02:35:48.501Z,35.54
2023-05-22T02:36:48.514Z,35.56
2023-05-22T02:37:48.519Z,35.55
2023-05-22T02:38:48.673Z,35.55
2023-05-22T02:39:48.556Z,35.54
2023-05-22T02:40:48.515Z,35.56
2023-05-22T02:41:48.575Z,35.54
2023-05-22T02:42:48.572Z,35.56
2023-05-22T02:43:48.577Z,35.55
2023-05-22T02:44:48.636Z,35.55
2023-05-22T02:45:48.640Z,35.56
2023-05-22T02:46:48.722Z,35.57
2023-05-22T02:47:48.667Z,35.57
2023-05-22T02:48:48.659Z,35.55
2023-05-22T02:49:48.726Z,35.57
2023-05-22T02:50:48.724Z,35.54
2023-05-22T02:51:48.721Z,35.58
2023-05-22T02:52:48.740Z,35.57
2023-05-22T02:53:48.735Z,35.57
2023-05-22T02:54:48.747Z,35.57
2023-05-22T02:55:48.762Z,35.58
2023-05-22T02:56:48.781Z,35.58
2023-05-22T02:57:48.843Z,35.56
2023-05-22T02:58:48.780Z,35.57
2023-05-22T02:59:48.841Z,35.58
2023-05-22T03:00:48.858Z,35.56
2023-05-22T03:01:48.888Z,35.58
2023-05-22T03:02:48.910Z,35.58
2023-05-22T03:03:49.024Z,35.56
2023-05-22T03:04:48.914Z,35.59
2023-05-22T03:05:48.923Z,35.59
2023-05-22T03:06:48.926Z,35.61
2023-05-22T03:07:49.043Z,35.58
2023-05-22T03:08:48.940Z,35.59
2023-05-22T03:09:49.038Z,35.58
2023-05-22T03:10:49.035Z,35.61
2023-05-22T03:11:49.065Z,35.58
2023-05-22T03:12:49.038Z,35.57
2023-05-22T03:13:49.036Z,35.59
2023-05-22T03:14:49.091Z,35.60
2023-05-22T03:15:49.102Z,35.59
2023-05-22T03:16:49.246Z,35.60
2023-05-22T03:17:49.227Z,35.59
2023-05-22T03:18:49.205Z,35.61
2023-05-22T03:19:49.184Z,35.58
2023-05-22T03:20:49.186Z,35.62
2023-05-22T03:21:49.208Z,35.59
2023-05-22T03:22:49.245Z,35.60
2023-05-22T03:23:49.257Z,35.62
2023-05-22T03:24:49.258Z,35.61
2023-05-22T03:25:49.274Z,35.60
2023-05-22T03:26:49.309Z,35.60
2023-05-22T03:27:49.343Z,35.58
2023-05-22T03:28:49.332Z,35.60
2023-05-22T03:29:49.364Z,35.59
2023-05-22T03:30:49.359Z,35.59
2023-05-22T03:31:49.368Z,35.59
2023-05-22T03:32:49.455Z,35.57
2023-05-22T03:33:49.462Z,35.57
2023-05-22T03:34:49.423Z,35.56
2023-05-22T03:35:49.447Z,35.56
2023-05-22T03:36:49.476Z,35.58
2023-05-22T03:37:49.513Z,35.55
2023-05-22T03:38:49.519Z,35.54
2023-05-22T03:39:49.567Z,35.51
2023-05-22T03:40:49.577Z,35.51
2023-05-22T03:41:49.580Z,35.54
2023-05-22T03:42:49.634Z,35.50
2023-05-22T03:43:49.601Z,35.50
2023-05-22T03:44:49.598Z,35.50
2023-05-22T03:45:49.728Z,35.47
2023-05-22T03:46:49.724Z,35.48
2023-05-22T03:47:49.767Z,35.44
2023-05-22T03:48:49.734Z,35.45
2023-05-22T03:49:49.731Z,35.41
2023-05-22T03:50:49.776Z,35.34
2023-05-22T03:51:49.767Z,35.27
2023-05-22T03:52:49.803Z,35.14
2023-05-22T03:53:49.833Z,35.03
2023-05-22T03:54:49.828Z,34.95
2023-05-22T03:55:49.841Z,34.86
2023-05-22T03:56:49.899Z,34.79
2023-05-22T03:57:49.850Z,34.66
2023-05-22T03:58:49.864Z,34.55
2023-05-22T03:59:49.868Z,34.48
2023-05-22T04:00:49.919Z,34.35
2023-05-22T04:01:49.978Z,34.26
2023-05-22T04:02:50.107Z,34.10
2023-05-22T04:03:50.090Z,33.91
2023-05-22T04:04:50.155Z,33.77
2023-05-22T04:05:50.210Z,33.61
2023-05-22T04:06:50.231Z,33.50
2023-05-22T04:07:50.273Z,33.39
2023-05-22T04:08:50.278Z,33.25
2023-05-22T04:09:50.337Z,33.10
2023-05-22T04:10:50.351Z,32.89
2023-05-22T04:11:50.360Z,32.77
2023-05-22T04:12:50.379Z,32.62
2023-05-22T04:13:50.430Z,32.52
2023-05-22T04:14:50.470Z,32.36
2023-05-22T04:15:50.523Z,32.25
2023-05-22T04:16:50.720Z,32.15
2023-05-22T04:17:50.644Z,31.99
2023-05-22T04:18:50.671Z,31.87
2023-05-22T04:19:50.720Z,31.75
2023-05-22T04:20:50.768Z,31.51
2023-05-22T04:21:50.838Z,31.42
2023-05-22T04:22:50.833Z,31.18
2023-05-22T04:23:50.892Z,31.09
2023-05-22T04:24:50.903Z,30.94
2023-05-22T04:25:50.956Z,30.79
2023-05-22T04:26:50.963Z,30.74
2023-05-22T04:27:51.033Z,30.48
2023-05-22T04:28:51.033Z,30.34
2023-05-22T04:29:51.033Z,30.21
2023-05-22T04:30:51.083Z,29.96
2023-05-22T04:31:51.048Z,29.89
2023-05-22T04:32:51.105Z,29.83
2023-05-22T04:33:51.120Z,29.75
2023-05-22T04:34:51.228Z,29.64
2023-05-22T04:35:51.183Z,29.58
2023-05-22T04:36:51.250Z,29.47
2023-05-22T04:37:51.258Z,29.36
2023-05-22T04:38:51.258Z,29.28
2023-05-22T04:39:51.275Z,29.18
2023-05-22T04:40:51.274Z,29.06
2023-05-22T04:41:51.274Z,29.01
2023-05-22T04:42:51.288Z,28.90
2023-05-22T04:43:51.401Z,28.79
2023-05-22T04:44:51.447Z,28.71
2023-05-22T04:45:51.476Z,28.61
2023-05-22T04:46:51.570Z,28.53
2023-05-22T04:47:51.612Z,28.43
2023-05-22T04:48:51.581Z,28.41
2023-05-22T04:49:51.588Z,28.33
2023-05-22T04:50:51.645Z,28.23
2023-05-22T04:51:51.657Z,28.13
2023-05-22T04:52:51.679Z,28.06
2023-05-22T04:53:51.707Z,28.03
2023-05-22T04:54:51.732Z,27.96
2023-05-22T04:55:51.679Z,27.95
2023-05-22T04:56:51.729Z,27.92
2023-05-22T04:57:51.740Z,27.91
2023-05-22T04:58:51.753Z,27.93
2023-05-22T04:59:51.756Z,28.05
2023-05-22T05:00:51.766Z,28.47
2023-05-22T05:01:51.765Z,28.93
2023-05-22T05:02:51.985Z,29.40
2023-05-22T05:03:51.904Z,29.81
2023-05-22T05:04:51.890Z,30.18
2023-05-22T05:05:51.901Z,30.40
2023-05-22T05:06:51.960Z,30.66
2023-05-22T05:07:51.971Z,30.84
2023-05-22T05:08:52.018Z,30.96
2023-05-22T05:09:52.097Z,31.09
2023-05-22T05:10:52.142Z,31.20
2023-05-22T05:11:52.173Z,31.33
2023-05-22T05:12:52.176Z,31.39
2023-05-22T05:13:52.211Z,31.50
2023-05-22T05:14:52.215Z,31.54
2023-05-22T05:15:52.259Z,31.62
2023-05-22T05:16:52.318Z,31.70
2023-05-22T05:17:52.392Z,31.73
2023-05-22T05:18:52.362Z,31.76
2023-05-22T05:19:52.295Z,31.78
2023-05-22T05:20:52.318Z,31.82
2023-05-22T05:21:52.314Z,31.86
2023-05-22T05:22:52.311Z,31.92
2023-05-22T05:23:52.341Z,31.90
2023-05-22T05:24:52.403Z,31.91
2023-05-22T05:25:52.371Z,31.92
2023-05-22T05:26:52.417Z,31.97
2023-05-22T05:27:52.380Z,31.97
2023-05-22T05:28:52.409Z,32.03
2023-05-22T05:29:52.419Z,32.16
2023-05-22T05:30:52.532Z,32.04
2023-05-22T05:31:52.563Z,31.82
2023-05-22T05:32:52.590Z,31.90
2023-05-22T05:33:52.529Z,31.92
2023-05-22T05:34:52.582Z,32.21
2023-05-22T05:35:52.681Z,32.33
2023-05-22T05:36:52.661Z,32.52
2023-05-22T05:37:52.755Z,32.75
2023-05-22T05:38:52.802Z,32.80
2023-05-22T05:39:52.846Z,32.94
2023-05-22T05:40:52.996Z,32.95
2023-05-22T05:41:52.974Z,33.09
2023-05-22T05:42:52.968Z,33.07
2023-05-22T05:43:53.096Z,32.93
2023-05-22T05:44:53.092Z,33.29
2023-05-22T05:45:53.270Z,33.34
2023-05-22T05:46:53.247Z,33.31
2023-05-22T05:47:53.304Z,33.48
2023-05-22T05:48:53.290Z,33.38
2023-05-22T05:49:53.352Z,33.41
2023-05-22T05:50:53.339Z,33.42
2023-05-22T05:51:53.491Z,33.40
2023-05-22T05:52:53.350Z,33.42
2023-05-22T05:53:53.356Z,33.58
2023-05-22T05:54:53.343Z,33.69
2023-05-22T05:55:53.322Z,33.72
2023-05-22T05:56:53.354Z,33.68
2023-05-22T05:57:53.381Z,33.81
2023-05-22T05:58:53.448Z,33.79
2023-05-22T05:59:53.445Z,33.80
2023-05-22T06:00:53.462Z,33.81
2023-05-22T06:01:53.476Z,33.80
2023-05-22T06:02:53.598Z,33.82
2023-05-22T06:03:53.825Z,33.93
2023-05-22T06:04:53.696Z,33.87
2023-05-22T06:05:53.669Z,33.92
2023-05-22T06:06:53.794Z,33.90
2023-05-22T06:07:53.744Z,33.92
2023-05-22T06:08:53.830Z,34.00
2023-05-22T06:09:53.884Z,34.03
2023-05-22T06:10:53.986Z,33.96
2023-05-22T06:11:54.002Z,33.97
2023-05-22T06:12:54.063Z,34.10
2023-05-22T06:13:54.111Z,34.16
2023-05-22T06:14:54.183Z,34.23
2023-05-22T06:15:54.296Z,34.21
2023-05-22T06:16:54.529Z,34.33
2023-05-22T06:17:54.440Z,34.31
2023-05-22T06:18:54.518Z,34.36
2023-05-22T06:19:54.514Z,34.48
2023-05-22T06:20:54.520Z,34.60
2023-05-22T06:21:54.626Z,34.72
2023-05-22T06:22:54.702Z,34.70
2023-05-22T06:23:54.750Z,34.79
2023-05-22T06:24:54.899Z,34.85
2023-05-22T06:25:54.827Z,34.87
2023-05-22T06:26:54.887Z,34.93
2023-05-22T06:27:54.963Z,34.89
2023-05-22T06:28:54.989Z,34.87
2023-05-22T06:29:56.331Z,34.84
2023-05-22T06:30:55.135Z,34.87
2023-05-22T06:31:55.203Z,34.96
2023-05-22T06:32:55.257Z,34.97
2023-05-22T06:33:55.458Z,34.95
2023-05-22T06:34:55.369Z,35.06
2023-05-22T06:35:55.421Z,35.16
2023-05-22T06:36:55.466Z,35.13
2023-05-22T06:37:55.576Z,35.00
2023-05-22T06:38:55.620Z,35.10
2023-05-22T06:39:56.361Z,35.04
2023-05-22T06:40:55.586Z,34.97
2023-05-22T06:41:55.656Z,34.86
2023-05-22T06:42:55.783Z,34.82
2023-05-22T06:43:55.861Z,34.77
2023-05-22T06:44:56.044Z,34.70
2023-05-22T06:45:55.928Z,34.71
2023-05-22T06:46:55.961Z,34.58
2023-05-22T06:47:56.462Z,34.59
2023-05-22T06:48:56.073Z,34.63
2023-05-22T06:49:56.096Z,34.61
2023-05-22T06:50:56.138Z,34.65
2023-05-22T06:51:56.165Z,34.68
2023-05-22T06:52:56.294Z,34.69
2023-05-22T06:53:56.337Z,34.69
2023-05-22T06:54:56.385Z,34.67
2023-05-22T06:55:56.348Z,34.67
2023-05-22T06:56:56.410Z,34.66
2023-05-22T06:57:56.978Z,34.65
2023-05-22T06:58:56.570Z,34.69
2023-05-22T06:59:56.633Z,34.75
2023-05-22T07:00:56.650Z,34.68
2023-05-22T07:01:56.742Z,34.73
2023-05-22T07:02:56.862Z,34.66
2023-05-22T07:03:56.934Z,34.70
2023-05-22T07:04:56.837Z,34.63
2023-05-22T07:05:57.001Z,34.68
2023-05-22T07:06:56.934Z,34.64
2023-05-22T07:07:57.005Z,34.65
2023-05-22T07:08:57.088Z,34.65
2023-05-22T07:09:57.160Z,34.63
2023-05-22T07:10:57.272Z,34.63
2023-05-22T07:11:57.231Z,34.69
2023-05-22T07:12:57.303Z,34.65
2023-05-22T07:13:57.434Z,34.62
2023-05-22T07:14:57.437Z,34.60
2023-05-22T07:15:57.560Z,34.66
2023-05-22T07:16:57.606Z,34.64
2023-05-22T07:17:57.699Z,34.67
2023-05-22T07:18:57.775Z,34.65
2023-05-22T07:19:57.710Z,34.68
2023-05-22T07:20:57.813Z,34.70
2023-05-22T07:21:57.833Z,34.73
2023-05-22T07:22:57.944Z,34.73
2023-05-22T07:23:57.945Z,34.79
2023-05-22T07:24:58.055Z,34.79
2023-05-22T07:25:58.075Z,34.74
2023-05-22T07:26:58.155Z,34.76
2023-05-22T07:27:58.688Z,34.76
2023-05-22T07:28:58.475Z,34.77
2023-05-22T07:29:58.460Z,34.80
2023-05-22T07:30:58.391Z,34.77
2023-05-22T07:31:58.588Z,34.76
2023-05-22T07:32:59.039Z,34.83
2023-05-22T07:33:58.653Z,34.69
2023-05-22T07:34:59.874Z,34.54
2023-05-22T07:35:58.752Z,34.77
2023-05-22T07:36:58.782Z,34.79
2023-05-22T07:37:58.844Z,34.79
2023-05-22T07:38:58.959Z,34.80
2023-05-22T07:39:59.019Z,34.74
2023-05-22T07:40:59.061Z,34.68
2023-05-22T07:41:59.563Z,34.57
2023-05-22T07:42:59.260Z,34.75
2023-05-22T07:43:59.184Z,34.73
2023-05-22T07:44:59.298Z,34.78
2023-05-22T07:45:59.284Z,34.79
2023-05-22T07:46:59.325Z,34.66
2023-05-22T07:48:00.577Z,34.51
2023-05-22T07:48:59.539Z,34.60
2023-05-22T07:49:59.545Z,34.40
2023-05-22T07:50:59.526Z,34.58
2023-05-22T07:51:59.561Z,34.62
2023-05-22T07:52:59.629Z,34.56
2023-05-22T07:54:59.741Z,34.54
2023-05-22T07:55:59.676Z,34.52
2023-05-22T07:56:59.768Z,34.59
2023-05-22T07:57:59.761Z,34.59
2023-05-22T07:58:59.929Z,34.68
2023-05-22T07:59:59.923Z,34.69
2023-05-22T08:00:59.878Z,34.67
2023-05-22T08:01:59.914Z,34.63
2023-05-22T08:03:00.204Z,34.61
2023-05-22T08:04:00.142Z,34.65
2023-05-22T08:05:00.571Z,34.61
2023-05-22T08:06:00.481Z,34.55
2023-05-22T08:07:00.110Z,34.55
2023-05-22T08:08:00.153Z,34.56
2023-05-22T08:09:00.171Z,34.59
2023-05-22T08:10:00.228Z,34.52
2023-05-22T08:11:04.090Z,34.48
2023-05-22T08:12:00.298Z,34.39
2023-05-22T08:13:00.293Z,34.24
2023-05-22T08:14:00.201Z,33.84
2023-05-22T08:15:00.224Z,33.50
2023-05-22T08:16:01.371Z,33.99
2023-05-22T08:17:00.231Z,34.01
2023-05-22T08:18:00.260Z,34.08
2023-05-22T08:19:00.288Z,34.06
2023-05-22T08:20:00.357Z,34.03
2023-05-22T08:21:00.230Z,34.05
2023-05-22T08:22:00.164Z,34.09
2023-05-22T08:23:00.128Z,34.07
2023-05-22T08:24:00.153Z,34.07
2023-05-22T08:25:00.478Z,34.21
2023-05-22T08:26:00.162Z,33.87
2023-05-22T08:27:00.119Z,32.09
2023-05-22T08:28:00.112Z,32.71
2023-05-22T08:29:00.149Z,31.94
2023-05-22T08:30:00.544Z,30.85
2023-05-22T08:31:00.118Z,31.65
2023-05-22T08:32:00.201Z,31.50
2023-05-22T08:33:00.226Z,31.54
2023-05-22T08:34:00.185Z,31.82
2023-05-22T08:35:00.519Z,31.76
2023-05-22T08:36:00.047Z,31.28
2023-05-22T08:37:00.077Z,30.95
2023-05-22T08:38:00.119Z,31.11
2023-05-22T08:39:00.136Z,31.28
2023-05-22T08:40:00.238Z,31.32
2023-05-22T08:41:00.211Z,30.96
2023-05-22T08:42:00.194Z,31.16
2023-05-22T08:43:00.219Z,30.84
2023-05-22T08:44:00.212Z,31.19
2023-05-22T08:45:00.301Z,31.53
2023-05-22T08:46:00.482Z,31.66
2023-05-22T08:47:00.502Z,31.41
2023-05-22T08:48:00.717Z,31.60
2023-05-22T08:49:00.458Z,31.78
2023-05-22T08:50:00.506Z,31.86
2023-05-22T08:51:00.544Z,31.92
2023-05-22T08:52:00.554Z,31.93
2023-05-22T08:53:00.644Z,31.91
2023-05-22T08:54:00.648Z,31.75
2023-05-22T08:55:00.692Z,31.88
2023-05-22T08:56:00.828Z,31.71
2023-05-22T08:57:00.768Z,31.63
2023-05-22T08:58:00.805Z,31.79
2023-05-22T08:59:00.984Z,31.92
2023-05-22T09:00:00.916Z,31.45
2023-05-22T09:01:00.893Z,31.80
2023-05-22T09:02:00.913Z,31.97
2023-05-22T09:03:01.011Z,31.75
2023-05-22T09:04:01.213Z,31.59
2023-05-22T09:05:00.977Z,31.89
2023-05-22T09:06:01.000Z,31.96
2023-05-22T09:07:01.497Z,31.85
2023-05-22T09:08:15.867Z,31.69
2023-05-22T09:09:02.052Z,31.78
2023-05-22T09:10:01.040Z,31.76
2023-05-22T09:11:01.052Z,31.76
2023-05-22T09:12:01.555Z,31.70
2023-05-22T09:13:01.118Z,31.79
2023-05-22T09:14:01.031Z,31.84
2023-05-22T09:15:01.043Z,31.81
2023-05-22T09:16:01.044Z,31.95
2023-05-22T09:17:01.076Z,31.85
2023-05-22T09:18:01.062Z,32.02
2023-05-22T09:19:00.988Z,32.05
2023-05-22T09:20:00.985Z,32.03
2023-05-22T09:21:00.988Z,31.62
2023-05-22T09:22:00.942Z,31.96
2023-05-22T09:23:01.012Z,31.13
2023-05-22T09:24:01.119Z,31.66
2023-05-22T09:25:01.181Z,31.66
2023-05-22T09:26:00.967Z,31.90
2023-05-22T09:27:01.007Z,31.86
2023-05-22T09:28:00.885Z,31.87
2023-05-22T09:29:01.050Z,31.83
2023-05-22T09:30:01.079Z,31.91
2023-05-22T09:31:03.830Z,31.91
2023-05-22T09:32:00.877Z,31.98
2023-05-22T09:33:00.967Z,31.81
2023-05-22T09:34:00.880Z,31.98
2023-05-22T09:35:01.091Z,31.94
2023-05-22T09:36:00.909Z,29.90
2023-05-22T09:37:00.872Z,30.96
2023-05-22T09:38:00.929Z,30.80
2023-05-22T09:39:00.828Z,31.10
2023-05-22T09:40:01.032Z,31.14
2023-05-22T09:41:01.051Z,31.07
2023-05-22T09:42:00.854Z,31.15
2023-05-22T09:43:00.824Z,31.07
2023-05-22T09:44:02.151Z,31.05
2023-05-22T09:45:00.818Z,31.20
2023-05-22T09:46:01.008Z,31.24
2023-05-22T09:47:00.850Z,31.25
2023-05-22T09:48:00.894Z,31.21
2023-05-22T09:49:00.847Z,31.20
2023-05-22T09:50:00.803Z,31.13
2023-05-22T09:51:00.801Z,30.66
2023-05-22T09:52:00.899Z,30.93
2023-05-22T09:53:02.373Z,30.77
2023-05-22T09:54:01.015Z,30.90
2023-05-22T09:55:00.729Z,31.01
2023-05-22T09:56:00.702Z,31.05
2023-05-22T09:57:00.723Z,30.97
2023-05-22T09:58:00.707Z,30.88
2023-05-22T09:59:00.689Z,31.08
2023-05-22T10:00:00.753Z,30.84
2023-05-22T10:01:00.742Z,30.85
2023-05-22T10:02:00.822Z,30.94
2023-05-22T10:03:00.863Z,30.92
2023-05-22T10:04:00.901Z,30.82
2023-05-22T10:05:01.002Z,31.00
2023-05-22T10:06:01.012Z,30.95
2023-05-22T10:07:01.066Z,30.96
2023-05-22T10:08:01.089Z,30.98
2023-05-22T10:09:01.191Z,31.26
2023-05-22T10:10:01.259Z,31.17
2023-05-22T10:11:01.261Z,31.01
2023-05-22T10:12:01.349Z,31.09
2023-05-22T10:13:01.411Z,31.41
2023-05-22T10:14:01.465Z,31.27
2023-05-22T10:15:01.514Z,31.30
2023-05-22T10:16:03.556Z,31.39
2023-05-22T10:17:01.672Z,31.31
2023-05-22T10:18:01.776Z,31.19
2023-05-22T10:19:01.830Z,31.25
2023-05-22T10:20:02.149Z,31.28
2023-05-22T10:21:01.888Z,31.30
2023-05-22T10:22:01.970Z,31.38
2023-05-22T10:23:02.655Z,31.31
2023-05-22T10:24:02.019Z,31.27
2023-05-22T10:25:02.532Z,31.47
2023-05-22T10:26:02.122Z,30.96
2023-05-22T10:27:02.199Z,31.13
2023-05-22T10:28:02.251Z,31.60
2023-05-22T10:29:02.359Z,31.57
2023-05-22T10:30:02.555Z,31.68
2023-05-22T10:31:02.396Z,31.77
2023-05-22T10:32:02.482Z,31.75
2023-05-22T10:33:02.635Z,31.77
2023-05-22T10:34:02.619Z,31.61
2023-05-22T10:35:02.606Z,31.40
2023-05-22T10:36:02.626Z,31.37
2023-05-22T10:37:13.138Z,30.70
2023-05-22T10:38:04.053Z,31.34
2023-05-22T10:39:02.751Z,30.95
2023-05-22T10:40:02.644Z,31.05
2023-05-22T10:41:02.662Z,30.75
2023-05-22T10:42:02.657Z,31.21
2023-05-22T10:43:03.081Z,31.37
2023-05-22T10:44:02.641Z,31.38
2023-05-22T10:45:02.632Z,31.17
2023-05-22T10:46:02.657Z,31.45
2023-05-22T10:47:02.687Z,31.29
2023-05-22T10:48:03.138Z,31.52
2023-05-22T10:49:02.809Z,31.61
2023-05-22T10:50:02.865Z,31.47
2023-05-22T10:51:02.897Z,31.52
2023-05-22T10:52:02.905Z,31.61
2023-05-22T10:53:02.967Z,31.54
2023-05-22T10:54:03.016Z,31.50
2023-05-22T10:55:03.092Z,31.37
2023-05-22T10:56:03.166Z,31.51
2023-05-22T10:57:03.091Z,31.56
2023-05-22T10:58:05.120Z,31.57
2023-05-22T10:59:03.184Z,31.56
2023-05-22T11:00:03.194Z,31.57
2023-05-22T11:01:03.285Z,31.64
2023-05-22T11:02:03.347Z,31.27
2023-05-22T11:03:10.069Z,31.23
2023-05-22T11:04:04.574Z,31.39
2023-05-22T11:05:03.520Z,31.25
2023-05-22T11:06:03.583Z,31.42
2023-05-22T11:07:03.324Z,31.52
2023-05-22T11:08:03.272Z,31.56
2023-05-22T11:09:03.305Z,31.14
2023-05-22T11:10:03.300Z,31.35
2023-05-22T11:11:04.864Z,31.43
2023-05-22T11:12:03.265Z,31.52
2023-05-22T11:13:03.274Z,31.48
2023-05-22T11:14:03.248Z,31.23
2023-05-22T11:15:03.287Z,31.18
2023-05-22T11:16:03.234Z,31.33
2023-05-22T11:17:03.364Z,31.43
2023-05-22T11:18:03.258Z,31.48
2023-05-22T11:20:03.317Z,31.51
2023-05-22T11:21:03.225Z,31.48
2023-05-22T11:22:03.257Z,31.17
2023-05-22T11:23:03.217Z,31.19
2023-05-22T11:24:03.594Z,31.05
2023-05-22T11:25:03.294Z,30.94
2023-05-22T11:26:03.282Z,30.74
2023-05-22T11:27:03.415Z,30.49
2023-05-22T11:28:03.308Z,30.12
2023-05-22T11:29:03.390Z,29.94
2023-05-22T11:30:03.372Z,29.78
2023-05-22T11:31:03.512Z,29.62
2023-05-22T11:32:03.460Z,29.30
2023-05-22T11:33:03.521Z,29.21
2023-05-22T11:34:03.504Z,29.28
2023-05-22T11:35:03.637Z,29.13
2023-05-22T11:36:03.630Z,28.95
2023-05-22T11:37:03.625Z,28.95
2023-05-22T11:38:03.682Z,28.96
2023-05-22T11:39:03.761Z,28.85
2023-05-22T11:40:03.769Z,28.85
2023-05-22T11:41:03.806Z,28.76
2023-05-22T11:42:03.890Z,28.86
2023-05-22T11:43:03.936Z,28.87
2023-05-22T11:44:04.001Z,28.72
2023-05-22T11:45:04.054Z,28.58
2023-05-22T11:46:04.190Z,28.50
2023-05-22T11:47:04.154Z,28.39
2023-05-22T11:48:04.354Z,28.30
2023-05-22T11:49:04.334Z,28.18
2023-05-22T11:50:04.401Z,28.15
2023-05-22T11:51:04.405Z,28.05
2023-05-22T11:52:04.468Z,28.12
2023-05-22T11:53:04.571Z,27.97
2023-05-22T11:54:04.632Z,28.00
2023-05-22T11:55:04.667Z,28.00
2023-05-22T11:56:04.690Z,27.93
2023-05-22T11:57:04.732Z,27.93
2023-05-22T11:58:04.817Z,28.00
2023-05-22T11:59:04.938Z,28.12
2023-05-22T12:00:04.933Z,27.09
2023-05-22T12:01:04.984Z,25.19
2023-05-22T12:02:05.037Z,26.34
2023-05-22T12:03:05.206Z,25.56
2023-05-22T12:04:05.259Z,25.07
2023-05-22T12:05:05.181Z,25.90
2023-05-22T12:06:05.385Z,25.78
2023-05-22T12:07:05.277Z,26.40
2023-05-22T12:08:05.311Z,26.63
2023-05-22T12:09:05.329Z,25.72
2023-05-22T12:10:05.417Z,25.68
2023-05-22T12:11:05.409Z,25.87
2023-05-22T12:12:05.451Z,25.58
2023-05-22T12:13:05.453Z,25.84
2023-05-22T12:14:05.479Z,26.00
2023-05-22T12:15:05.614Z,26.23
2023-05-22T12:16:05.592Z,25.60
2023-05-22T12:17:05.576Z,25.00
2023-05-22T12:18:05.638Z,24.22
2023-05-22T12:19:05.626Z,23.65
2023-05-22T12:20:05.762Z,23.40
2023-05-22T12:21:05.708Z,23.60
2023-05-22T12:22:05.800Z,23.70
2023-05-22T12:23:05.797Z,23.89
2023-05-22T12:24:05.831Z,23.71
2023-05-22T12:25:05.909Z,23.51
2023-05-22T12:26:05.942Z,23.55
2023-05-22T12:27:05.957Z,23.84
2023-05-22T12:28:06.042Z,23.82
2023-05-22T12:29:06.028Z,23.83
2023-05-22T12:30:06.185Z,22.62
2023-05-22T12:31:06.213Z,23.12
2023-05-22T12:32:06.218Z,23.35
2023-05-22T12:33:06.214Z,23.73
2023-05-22T12:34:06.285Z,23.66
2023-05-22T12:35:06.329Z,23.24
2023-05-22T12:36:06.329Z,23.42
2023-05-22T12:37:06.441Z,23.62
2023-05-22T12:38:06.408Z,23.72
2023-05-22T12:39:06.440Z,23.11
2023-05-22T12:40:06.417Z,23.17
2023-05-22T12:41:06.425Z,22.95
2023-05-22T12:42:06.443Z,22.92
2023-05-22T12:43:06.465Z,22.95
2023-05-22T12:44:06.531Z,22.76
2023-05-22T12:45:06.472Z,22.83
2023-05-22T12:46:06.506Z,22.78
2023-05-22T12:47:06.546Z,22.90
2023-05-22T12:48:06.627Z,23.01
2023-05-22T12:49:06.491Z,23.03
2023-05-22T12:50:06.435Z,23.13
2023-05-22T12:51:06.553Z,23.14
2023-05-22T12:52:06.453Z,23.06
2023-05-22T12:53:06.454Z,23.26
2023-05-22T12:54:06.453Z,22.85
2023-05-22T12:55:06.472Z,22.89